createdAt,value
2023-04-01T00:01:10.685Z,64.52
2023-04-01T00:03:37.533Z,63.83
2023-04-01T00:06:04.656Z,63.17
2023-04-01T00:08:32.530Z,64.57
2023-04-01T00:10:59.356Z,66.00
2023-04-01T00:13:27.556Z,63.99
2023-04-01T00:15:56.179Z,63.26
2023-04-01T00:18:23.788Z,62.70
2023-04-01T00:20:52.398Z,63.49
2023-04-01T00:23:20.177Z,62.76
2023-04-01T00:25:47.407Z,62.49
2023-04-01T00:28:15.000Z,62.62
2023-04-01T00:30:41.717Z,62.54
2023-04-01T00:33:08.495Z,62.60
2023-04-01T00:35:35.206Z,63.08
2023-04-01T00:38:02.163Z,64.24
2023-04-01T00:40:35.125Z,64.35
2023-04-01T00:43:02.200Z,65.60
2023-04-01T00:45:34.831Z,67.24
2023-04-01T00:48:24.360Z,68.03
2023-04-01T00:51:06.160Z,68.01
2023-04-01T00:53:37.352Z,68.42
2023-04-01T00:56:11.360Z,67.93
2023-04-01T00:58:43.752Z,67.92
2023-04-01T01:01:11.236Z,66.59
2023-04-01T01:03:37.960Z,66.21
2023-04-01T01:06:19.679Z,65.80
2023-04-01T01:09:13.541Z,64.16
2023-04-01T01:12:08.921Z,65.00
2023-04-01T01:14:43.308Z,64.40
2023-04-01T01:17:19.542Z,64.26
2023-04-01T01:20:25.441Z,63.89
2023-04-01T01:23:23.064Z,65.17
2023-04-01T01:25:52.601Z,65.47
2023-04-01T01:28:44.395Z,65.10
2023-04-01T01:31:22.094Z,66.61
2023-04-01T01:34:27.379Z,66.09
2023-04-01T01:36:59.314Z,67.23
2023-04-01T01:39:31.221Z,68.23
2023-04-01T01:42:05.037Z,68.57
2023-04-01T01:44:35.428Z,67.26
2023-04-01T01:47:03.052Z,68.69
2023-04-01T01:49:34.025Z,68.80
2023-04-01T01:52:00.630Z,68.77
2023-04-01T01:54:27.240Z,68.18
2023-04-01T01:57:06.625Z,66.68
2023-04-01T01:59:38.172Z,66.46
2023-04-01T02:02:10.261Z,66.43
2023-04-01T02:04:41.341Z,66.67
2023-04-01T02:07:14.745Z,65.44
2023-04-01T02:09:41.777Z,64.79
2023-04-01T02:12:13.779Z,64.45
2023-04-01T02:15:07.374Z,64.93
2023-04-01T02:17:36.728Z,64.60
2023-04-01T02:20:08.417Z,64.58
2023-04-01T02:22:40.594Z,64.83
2023-04-01T02:25:13.061Z,63.55
2023-04-01T02:27:41.173Z,62.48
2023-04-01T02:30:08.658Z,62.62
2023-04-01T02:32:39.313Z,62.93
2023-04-01T02:35:14.886Z,64.64
2023-04-01T02:37:43.985Z,63.24
2023-04-01T02:40:14.690Z,61.91
2023-04-01T02:42:41.510Z,62.18
2023-04-01T02:45:09.358Z,61.62
2023-04-01T02:47:36.318Z,61.12
2023-04-01T02:50:05.830Z,61.15
2023-04-01T02:52:32.517Z,61.42
2023-04-01T02:54:59.199Z,59.65
2023-04-01T02:57:26.730Z,59.55
2023-04-01T02:59:53.519Z,60.06
2023-04-01T03:02:20.327Z,60.51
2023-04-01T03:04:47.108Z,60.93
2023-04-01T03:07:13.767Z,61.85
2023-04-01T03:09:40.974Z,62.26
2023-04-01T03:12:08.094Z,62.24
2023-04-01T03:14:34.777Z,63.57
2023-04-01T03:17:01.482Z,63.85
2023-04-01T03:19:28.367Z,63.77
2023-04-01T03:21:54.992Z,64.34
2023-04-01T03:24:23.902Z,64.51
2023-04-01T03:26:50.627Z,65.03
2023-04-01T03:29:17.232Z,65.57
2023-04-01T03:31:43.845Z,65.76
2023-04-01T03:34:10.544Z,65.61
2023-04-01T03:36:37.330Z,67.28
2023-04-01T03:39:04.469Z,68.69
2023-04-01T03:41:31.234Z,69.38
2023-04-01T03:43:57.953Z,70.11
2023-04-01T03:46:24.708Z,69.51
2023-04-01T03:48:51.379Z,70.46
2023-04-01T03:51:18.031Z,71.07
2023-04-01T03:53:44.687Z,72.11
2023-04-01T03:56:11.652Z,71.67
2023-04-01T03:58:38.449Z,72.36
2023-04-01T04:01:15.404Z,72.85
2023-04-01T04:03:42.152Z,74.61
2023-04-01T04:06:12.591Z,74.17
2023-04-01T04:08:39.686Z,73.75
2023-04-01T04:11:06.761Z,73.28
2023-04-01T04:13:33.500Z,71.97
2023-04-01T04:16:00.236Z,70.21
2023-04-01T04:18:27.023Z,71.01
2023-04-01T04:20:53.825Z,70.88
2023-04-01T04:23:20.506Z,70.47
2023-04-01T04:25:58.731Z,71.39
2023-04-01T04:28:27.316Z,72.13
2023-04-01T04:30:55.295Z,71.87
2023-04-01T04:33:23.374Z,69.75
2023-04-01T04:35:50.736Z,70.13
2023-04-01T04:38:17.888Z,70.90
2023-04-01T04:40:44.910Z,71.66
2023-04-01T04:43:14.739Z,72.82
2023-04-01T04:45:44.960Z,73.98
2023-04-01T04:48:14.844Z,74.37
2023-04-01T04:50:41.802Z,74.59
2023-04-01T04:53:11.414Z,74.50
2023-04-01T04:55:38.056Z,75.78
2023-04-01T04:58:04.780Z,76.54
2023-04-01T05:00:31.421Z,76.78
2023-04-01T05:02:58.184Z,74.86
2023-04-01T05:05:24.912Z,75.73
2023-04-01T05:07:51.616Z,75.75
2023-04-01T05:10:18.346Z,76.86
2023-04-01T05:12:45.233Z,75.93
2023-04-01T05:15:12.119Z,74.29
2023-04-01T05:17:38.753Z,72.35
2023-04-01T05:20:06.105Z,72.06
2023-04-01T05:22:32.758Z,71.79
2023-04-01T05:24:59.484Z,71.80
2023-04-01T05:27:26.141Z,71.11
2023-04-01T05:29:52.783Z,70.52
2023-04-01T05:32:19.402Z,71.71
2023-04-01T05:34:46.025Z,72.71
2023-04-01T05:37:12.673Z,73.92
2023-04-01T05:39:40.144Z,74.38
2023-04-01T05:42:07.743Z,74.55
2023-04-01T05:44:35.856Z,75.13
2023-04-01T05:47:03.644Z,74.36
2023-04-01T05:49:30.402Z,74.59
2023-04-01T05:51:57.646Z,74.57
2023-04-01T05:54:24.504Z,75.06
2023-04-01T05:56:51.153Z,74.76
2023-04-01T05:59:17.785Z,75.55
2023-04-01T06:01:44.444Z,74.64
2023-04-01T06:04:16.107Z,75.82
2023-04-01T06:06:43.319Z,74.42
2023-04-01T06:09:17.862Z,74.07
2023-04-01T06:12:23.425Z,73.28
2023-04-01T06:15:08.866Z,72.69
2023-04-01T06:18:02.819Z,73.08
2023-04-01T06:20:53.779Z,73.45
2023-04-01T06:23:50.924Z,72.06
2023-04-01T06:26:38.738Z,70.58
2023-04-01T06:29:30.942Z,70.07
2023-04-01T06:32:10.655Z,70.93
2023-04-01T06:34:45.938Z,71.79
2023-04-01T06:37:32.830Z,71.47
2023-04-01T06:40:17.425Z,70.88
2023-04-01T06:42:57.201Z,68.62
2023-04-01T06:45:46.669Z,69.25
2023-04-01T06:48:44.074Z,70.42
2023-04-01T06:51:47.919Z,72.40
2023-04-01T06:54:57.821Z,74.02
2023-04-01T06:57:33.052Z,73.91
2023-04-01T07:00:04.996Z,72.87
2023-04-01T07:02:53.784Z,72.30
2023-04-01T07:05:21.216Z,72.11
2023-04-01T07:07:55.705Z,72.60
2023-04-01T07:10:35.646Z,73.23
2023-04-01T07:13:11.332Z,72.96
2023-04-01T07:15:42.309Z,72.97
2023-04-01T07:18:20.275Z,74.75
2023-04-01T07:20:47.991Z,74.18
2023-04-01T07:23:24.279Z,73.76
2023-04-01T07:25:59.413Z,72.78
2023-04-01T07:28:32.212Z,73.51
2023-04-01T07:31:15.063Z,73.37
2023-04-01T07:34:01.323Z,75.10
2023-04-01T07:36:44.109Z,75.30
2023-04-01T07:39:58.247Z,74.88
2023-04-01T07:42:51.642Z,74.62
2023-04-01T07:45:35.683Z,74.93
2023-04-01T07:48:11.670Z,75.18
2023-04-01T07:51:11.329Z,74.57
2023-04-01T07:53:51.769Z,74.75
2023-04-01T07:56:57.319Z,74.70
2023-04-01T07:59:45.381Z,72.64
2023-04-01T08:02:33.885Z,71.32
2023-04-01T08:05:35.352Z,70.38
2023-04-01T08:08:32.071Z,69.85
2023-04-01T08:11:09.534Z,67.47
2023-04-01T08:14:08.189Z,68.37
2023-04-01T08:17:03.118Z,66.16
2023-04-01T08:19:55.081Z,67.51
2023-04-01T08:22:33.951Z,66.12
2023-04-01T08:25:05.478Z,65.63
2023-04-01T08:27:54.508Z,66.39
2023-04-01T08:30:24.674Z,66.53
2023-04-01T08:32:58.154Z,65.97
2023-04-01T08:35:42.082Z,66.76
2023-04-01T08:38:22.743Z,64.83
2023-04-01T08:41:11.379Z,66.10
2023-04-01T08:43:52.730Z,66.38
2023-04-01T08:46:37.516Z,67.26
2023-04-01T08:49:04.074Z,67.65
2023-04-01T08:51:49.118Z,68.32
2023-04-01T08:54:45.954Z,66.12
2023-04-01T08:58:08.245Z,66.38
2023-04-01T09:00:45.888Z,65.71
2023-04-01T09:03:58.047Z,64.70
2023-04-01T09:06:31.081Z,64.01
2023-04-01T09:09:10.668Z,64.46
2023-04-01T09:11:37.309Z,62.51
2023-04-01T09:14:22.670Z,62.90
2023-04-01T09:17:15.528Z,62.02
2023-04-01T09:20:06.245Z,61.30
2023-04-01T09:22:46.048Z,61.95
2023-04-01T09:25:39.471Z,62.85
2023-04-01T09:28:32.274Z,61.86
2023-04-01T09:31:17.470Z,61.91
2023-04-01T09:34:02.407Z,62.14
2023-04-01T09:36:31.710Z,63.30
2023-04-01T09:39:18.741Z,63.59
2023-04-01T09:42:14.759Z,64.05
2023-04-01T09:45:09.664Z,64.21
2023-04-01T09:47:46.547Z,63.92
2023-04-01T09:50:35.852Z,64.85
2023-04-01T09:53:49.703Z,65.13
2023-04-01T09:56:40.248Z,65.42
2023-04-01T09:59:49.888Z,64.33
2023-04-01T10:02:43.990Z,63.97
2023-04-01T10:05:25.734Z,65.30
2023-04-01T10:08:13.297Z,66.81
2023-04-01T10:11:14.375Z,68.34
2023-04-01T10:14:08.065Z,70.73
2023-04-01T10:17:15.416Z,69.15
2023-04-01T10:20:02.692Z,69.42
2023-04-01T10:23:10.694Z,67.18
2023-04-01T10:26:13.839Z,64.69
2023-04-01T10:29:04.163Z,62.97
2023-04-01T10:31:42.623Z,61.74
2023-04-01T10:34:35.200Z,61.07
2023-04-01T10:38:00.104Z,60.66
2023-04-01T10:40:54.005Z,61.71
2023-04-01T10:43:34.909Z,61.23
2023-04-01T10:46:11.061Z,63.67
2023-04-01T10:48:46.553Z,62.94
2023-04-01T10:52:00.039Z,62.09
2023-04-01T10:54:51.246Z,60.84
2023-04-01T10:57:29.962Z,61.47
2023-04-01T11:00:31.682Z,59.87
2023-04-01T11:03:23.319Z,60.50
2023-04-01T11:06:05.107Z,61.42
2023-04-01T11:08:55.683Z,60.84
2023-04-01T11:11:34.105Z,59.17
2023-04-01T11:14:29.448Z,63.46
2023-04-01T11:17:20.749Z,67.85
2023-04-01T11:20:06.057Z,72.11
2023-04-01T11:22:53.100Z,75.10
2023-04-01T11:25:19.646Z,76.84
2023-04-01T11:28:07.892Z,76.71
2023-04-01T11:30:34.433Z,76.40
2023-04-01T11:33:15.306Z,75.20
2023-04-01T11:35:47.785Z,74.53
2023-04-01T11:38:29.667Z,75.42
2023-04-01T11:41:39.884Z,73.84
2023-04-01T11:44:21.789Z,72.13
2023-04-01T11:47:03.495Z,69.90
2023-04-01T11:49:48.527Z,70.49
2023-04-01T11:52:41.846Z,66.34
2023-04-01T11:55:53.549Z,68.01
2023-04-01T11:58:29.624Z,66.68
2023-04-01T12:01:11.399Z,65.53
2023-04-01T12:03:53.302Z,64.59
2023-04-01T12:06:27.077Z,65.06
2023-04-01T12:09:05.695Z,64.53
2023-04-01T12:12:08.934Z,65.48
2023-04-01T12:15:10.883Z,67.79
2023-04-01T12:17:49.847Z,63.46
2023-04-01T12:20:38.700Z,62.79
2023-04-01T12:23:28.088Z,62.70
2023-04-01T12:26:05.280Z,60.88
2023-04-01T12:29:07.364Z,59.88
2023-04-01T12:32:01.617Z,57.09
2023-04-01T12:34:51.018Z,57.29
2023-04-01T12:37:27.959Z,57.18
2023-04-01T12:40:25.710Z,56.50
2023-04-01T12:43:29.475Z,56.28
2023-04-01T12:46:24.786Z,55.92
2023-04-01T12:49:21.133Z,54.06
2023-04-01T12:52:08.970Z,53.52
2023-04-01T12:54:54.070Z,52.78
2023-04-01T12:57:32.779Z,54.32
2023-04-01T12:59:59.386Z,54.17
2023-04-01T13:02:25.943Z,52.51
2023-04-01T13:05:14.320Z,52.90
2023-04-01T13:08:24.388Z,53.80
2023-04-01T13:10:57.008Z,52.73
2023-04-01T13:13:48.415Z,52.66
2023-04-01T13:16:59.039Z,54.14
2023-04-01T13:20:04.183Z,55.00
2023-04-01T13:22:53.312Z,57.44
2023-04-01T13:25:30.092Z,58.96
2023-04-01T13:28:21.387Z,58.00
2023-04-01T13:31:00.272Z,56.36
2023-04-01T13:34:08.502Z,57.68
2023-04-01T13:36:43.377Z,57.14
2023-04-01T13:39:33.172Z,56.16
2023-04-01T13:42:29.813Z,54.79
2023-04-01T13:45:13.037Z,54.93
2023-04-01T13:47:42.678Z,55.05
2023-04-01T13:50:28.942Z,53.30
2023-04-01T13:53:06.196Z,52.70
2023-04-01T13:55:41.837Z,52.67
2023-04-01T13:58:44.754Z,51.88
2023-04-01T14:01:20.722Z,52.66
2023-04-01T14:04:05.523Z,53.63
2023-04-01T14:06:34.848Z,54.75
2023-04-01T14:09:25.746Z,54.26
2023-04-01T14:12:17.264Z,54.35
2023-04-01T14:15:25.651Z,54.42
2023-04-01T14:18:19.719Z,53.49
2023-04-01T14:20:54.316Z,53.63
2023-04-01T14:23:33.007Z,54.86
2023-04-01T14:26:13.185Z,55.79
2023-04-01T14:28:48.628Z,57.28
2023-04-01T14:31:20.952Z,58.20
2023-04-01T14:34:11.869Z,59.24
2023-04-01T14:36:47.254Z,59.00
2023-04-01T14:39:44.557Z,58.62
2023-04-01T14:42:29.474Z,59.48
2023-04-01T14:45:14.746Z,59.69
2023-04-01T14:48:18.261Z,59.07
2023-04-01T14:50:52.760Z,59.82
2023-04-01T14:53:36.258Z,60.45
2023-04-01T14:56:03.677Z,61.92
2023-04-01T14:58:50.368Z,63.40
2023-04-01T15:01:26.066Z,64.51
2023-04-01T15:04:15.431Z,66.82
2023-04-01T15:06:56.986Z,68.75
2023-04-01T15:09:47.118Z,70.30
2023-04-01T15:12:49.015Z,71.11
2023-04-01T15:15:40.264Z,69.57
2023-04-01T15:18:28.188Z,69.54
2023-04-01T15:20:57.698Z,69.09
2023-04-01T15:23:43.113Z,70.23
2023-04-01T15:26:34.875Z,67.56
2023-04-01T15:29:16.617Z,67.80
2023-04-01T15:32:15.066Z,65.01
2023-04-01T15:35:18.343Z,63.80
2023-04-01T15:38:07.438Z,61.38
2023-04-01T15:40:42.944Z,64.47
2023-04-01T15:43:39.300Z,63.77
2023-04-01T15:46:42.799Z,62.62
2023-04-01T15:49:35.804Z,64.48
2023-04-01T15:52:13.250Z,64.99
2023-04-01T15:55:17.571Z,64.16
2023-04-01T15:57:53.424Z,63.53
2023-04-01T16:00:43.457Z,63.10
2023-04-01T16:03:25.327Z,65.37
2023-04-01T16:06:17.408Z,66.17
2023-04-01T16:09:11.623Z,65.79
2023-04-01T16:12:01.574Z,67.14
2023-04-01T16:14:45.486Z,66.36
2023-04-01T16:17:24.401Z,66.31
2023-04-01T16:20:23.432Z,64.44
2023-04-01T16:22:56.350Z,64.08
2023-04-01T16:25:41.442Z,63.54
2023-04-01T16:28:24.169Z,62.62
2023-04-01T16:31:09.081Z,61.28
2023-04-01T16:33:41.311Z,62.49
2023-04-01T16:36:26.067Z,62.88
2023-04-01T16:39:18.342Z,63.78
2023-04-01T16:41:59.423Z,63.02
2023-04-01T16:44:27.861Z,63.21
2023-04-01T16:46:59.774Z,63.50
2023-04-01T16:49:41.614Z,64.11
2023-04-01T16:52:10.864Z,63.90
2023-04-01T16:54:59.053Z,64.97
2023-04-01T16:58:06.471Z,66.11
2023-04-01T17:01:08.489Z,65.82
2023-04-01T17:03:47.430Z,66.07
2023-04-01T17:06:49.432Z,66.12
2023-04-01T17:09:31.526Z,67.30
2023-04-01T17:12:17.684Z,67.23
2023-04-01T17:14:50.151Z,67.02
2023-04-01T17:17:24.879Z,66.90
2023-04-01T17:20:10.230Z,67.44
2023-04-01T17:22:53.918Z,68.72
2023-04-01T17:25:35.808Z,68.19
2023-04-01T17:28:27.058Z,68.67
2023-04-01T17:31:17.698Z,68.20
2023-04-01T17:34:04.294Z,68.53
2023-04-01T17:36:40.009Z,68.19
2023-04-01T17:39:25.384Z,68.41
2023-04-01T17:42:17.738Z,68.44
2023-04-01T17:44:58.437Z,69.44
2023-04-01T17:48:09.187Z,69.10
2023-04-01T17:50:54.299Z,70.01
2023-04-01T17:53:46.561Z,70.86
2023-04-01T17:56:29.301Z,70.99
2023-04-01T17:59:48.373Z,72.04
2023-04-01T18:02:46.511Z,72.01
2023-04-01T18:05:43.538Z,70.66
2023-04-01T18:08:32.746Z,71.48
2023-04-01T18:11:14.440Z,71.64
2023-04-01T18:14:19.161Z,71.86
2023-04-01T18:17:12.796Z,71.50
2023-04-01T18:20:13.809Z,71.20
2023-04-01T18:23:28.228Z,70.71
2023-04-01T18:26:25.226Z,69.99
2023-04-01T18:29:12.731Z,70.71
2023-04-01T18:31:52.492Z,70.62
2023-04-01T18:34:45.297Z,69.67
2023-04-01T18:37:30.405Z,68.31
2023-04-01T18:40:12.659Z,69.48
2023-04-01T18:43:09.624Z,68.76
2023-04-01T18:45:52.464Z,68.85
2023-04-01T18:48:50.062Z,68.96
2023-04-01T18:51:44.518Z,69.06
2023-04-01T18:54:46.393Z,70.01
2023-04-01T18:57:19.321Z,69.54
2023-04-01T19:00:07.795Z,70.13
2023-04-01T19:03:30.122Z,69.08
2023-04-01T19:06:02.541Z,68.41
2023-04-01T19:08:34.979Z,68.40
2023-04-01T19:11:26.177Z,69.48
2023-04-01T19:14:01.808Z,68.65
2023-04-01T19:17:04.490Z,67.01
2023-04-01T19:19:51.030Z,67.46
2023-04-01T19:22:45.509Z,68.01
2023-04-01T19:25:28.556Z,67.67
2023-04-01T19:28:22.015Z,68.42
2023-04-01T19:31:08.560Z,68.86
2023-04-01T19:34:00.039Z,69.25
2023-04-01T19:36:35.760Z,70.26
2023-04-01T19:39:25.422Z,70.81
2023-04-01T19:42:06.235Z,70.05
2023-04-01T19:45:03.688Z,70.39
2023-04-01T19:47:39.135Z,70.71
2023-04-01T19:50:29.712Z,71.19
2023-04-01T19:53:23.607Z,70.25
2023-04-01T19:56:13.069Z,72.05
2023-04-01T19:58:46.861Z,72.11
2023-04-01T20:01:45.280Z,72.38
2023-04-01T20:04:29.964Z,72.59
2023-04-01T20:07:18.297Z,71.82
2023-04-01T20:09:47.883Z,72.61
2023-04-01T20:12:25.966Z,72.75
2023-04-01T20:14:59.249Z,73.63
2023-04-01T20:17:31.942Z,73.16
2023-04-01T20:20:21.906Z,73.57
2023-04-01T20:23:05.993Z,74.11
2023-04-01T20:25:52.546Z,72.48
2023-04-01T20:28:20.279Z,73.03
2023-04-01T20:31:14.703Z,71.78
2023-04-01T20:34:05.427Z,71.26
2023-04-01T20:36:47.037Z,70.66
2023-04-01T20:39:49.891Z,71.20
2023-04-01T20:42:25.577Z,72.70
2023-04-01T20:45:05.796Z,73.44
2023-04-01T20:47:54.637Z,73.49
2023-04-01T20:51:16.259Z,73.31
2023-04-01T20:54:06.840Z,72.95
2023-04-01T20:56:59.221Z,72.03
2023-04-01T21:00:03.876Z,72.41
2023-04-01T21:02:54.664Z,73.33
2023-04-01T21:05:36.463Z,74.01
2023-04-01T21:08:15.760Z,72.34
2023-04-01T21:11:01.178Z,73.20
2023-04-01T21:13:42.783Z,73.37
2023-04-01T21:16:15.500Z,73.51
2023-04-01T21:18:55.730Z,73.19
2023-04-01T21:21:34.793Z,73.46
2023-04-01T21:24:42.542Z,73.15
2023-04-01T21:27:35.761Z,71.44
2023-04-01T21:30:30.606Z,70.83
2023-04-01T21:33:48.363Z,70.40
2023-04-01T21:36:36.385Z,69.25
2023-04-01T21:39:27.890Z,69.22
2023-04-01T21:42:23.073Z,69.17
2023-04-01T21:45:04.654Z,68.44
2023-04-01T21:47:34.303Z,68.53
2023-04-01T21:50:22.576Z,68.60
2023-04-01T21:53:27.717Z,68.27
2023-04-01T21:56:15.519Z,66.92
2023-04-01T21:59:23.524Z,65.79
2023-04-01T22:02:26.789Z,64.39
2023-04-01T22:05:08.345Z,63.84
2023-04-01T22:08:00.470Z,65.51
2023-04-01T22:10:48.123Z,66.46
2023-04-01T22:13:27.791Z,67.53
2023-04-01T22:16:28.585Z,69.33
2023-04-01T22:19:06.375Z,69.24
2023-04-01T22:21:49.563Z,69.50
2023-04-01T22:24:29.852Z,69.32
2023-04-01T22:27:03.735Z,67.83
2023-04-01T22:29:30.307Z,67.28
2023-04-01T22:32:22.278Z,65.47
2023-04-01T22:34:54.884Z,65.69
2023-04-01T22:37:39.664Z,65.81
2023-04-01T22:40:12.534Z,65.86
2023-04-01T22:42:52.304Z,66.73
2023-04-01T22:45:31.125Z,68.44
2023-04-01T22:48:12.654Z,70.21
2023-04-01T22:51:06.931Z,70.63
2023-04-01T22:53:44.848Z,71.14
2023-04-01T22:56:19.346Z,70.47
2023-04-01T22:59:09.378Z,70.12
2023-04-01T23:01:47.235Z,69.54
2023-04-01T23:04:19.056Z,70.61
2023-04-01T23:06:54.668Z,70.20
2023-04-01T23:09:27.220Z,71.37
2023-04-01T23:12:13.726Z,69.68
2023-04-01T23:14:50.508Z,69.16
2023-04-01T23:17:43.106Z,67.30
2023-04-01T23:20:29.115Z,67.82
2023-04-01T23:23:09.070Z,67.79
2023-04-01T23:26:10.903Z,70.00
2023-04-01T23:28:46.114Z,68.63
2023-04-01T23:31:38.489Z,68.30
2023-04-01T23:34:25.237Z,68.80
2023-04-01T23:36:57.153Z,67.65
2023-04-01T23:39:32.783Z,68.98
2023-04-01T23:42:14.914Z,68.16
2023-04-01T23:44:43.112Z,66.36
2023-04-01T23:47:18.618Z,66.03
2023-04-01T23:49:52.568Z,67.03
2023-04-01T23:52:24.475Z,66.92
2023-04-01T23:54:59.015Z,65.34
2023-04-01T23:57:30.862Z,66.75
